Time;durP1;ratioP1;P1;durP2;ratioP2;P2;SDS_P1;SDS_P2;PMS_P1;PMS_P2;Temp;Humidity;BMP_temperature;BMP_pressure;BME280_temperature;BME280_humidity;BME280_pressure;Samples;Min_cycle;Max_cycle;Signal;HPM_P1;HPM_P2
2022/01/21 00:01:37;;;;;;;12.25;3.80;;;3.20;67.50;;;;;;5033586;28;20083;-71
2022/01/21 00:04:03;;;;;;;18.17;4.22;;;3.20;67.30;;;;;;5042886;28;20033;-71
2022/01/21 00:06:29;;;;;;;11.18;3.50;;;3.20;67.30;;;;;;5036298;28;20048;-71
2022/01/21 00:08:55;;;;;;;9.65;3.55;;;3.20;67.20;;;;;;5037489;28;20017;-71
2022/01/21 00:11:23;;;;;;;11.10;3.50;;;3.20;67.20;;;;;;5041901;28;20075;-71
2022/01/21 00:13:49;;;;;;;7.85;2.90;;;3.20;67.30;;;;;;5050139;28;20111;-71
2022/01/21 00:16:21;;;;;;;8.70;3.00;;;3.20;67.40;;;;;;5036828;28;20043;-71
2022/01/21 00:19:00;;;;;;;9.02;3.00;;;3.20;67.40;;;;;;5035340;28;20101;-71
2022/01/21 00:32:25;;;;;;;12.05;3.22;;;3.30;67.40;;;;;;5040650;28;19926;-71
2022/01/21 00:34:51;;;;;;;5.90;2.92;;;3.30;67.20;;;;;;5050352;28;20028;-72
2022/01/21 00:37:17;;;;;;;10.75;3.08;;;3.20;67.30;;;;;;5043373;28;20469;-71
2022/01/21 00:39:45;;;;;;;6.00;2.75;;;3.20;67.30;;;;;;5048965;28;20017;-71
2022/01/21 00:42:30;;;;;;;7.22;2.78;;;3.20;67.30;;;;;;5039912;28;20061;-71
2022/01/21 00:45:00;;;;;;;9.63;2.92;;;3.20;67.30;;;;;;5043572;28;20028;-71
2022/01/21 00:47:26;;;;;;;9.90;3.47;;;3.20;67.30;;;;;;5043735;28;20433;-71
2022/01/21 00:49:52;;;;;;;10.48;3.05;;;3.20;67.40;;;;;;5035476;28;20111;-71
2022/01/21 00:52:18;;;;;;;5.78;2.90;;;3.20;67.40;;;;;;5047549;28;20058;-71
2022/01/21 00:54:43;;;;;;;7.22;2.80;;;3.10;67.30;;;;;;5051761;28;20033;-71
2022/01/21 00:57:09;;;;;;;6.82;2.80;;;3.10;67.40;;;;;;5053528;28;20550;-71
2022/01/21 00:59:35;;;;;;;9.20;2.92;;;3.10;67.40;;;;;;5053560;28;20028;-71
2022/01/21 01:02:01;;;;;;;10.60;4.35;;;3.10;67.40;;;;;;5052194;28;20076;-71
2022/01/21 01:04:27;;;;;;;13.00;3.30;;;3.10;67.30;;;;;;5043216;28;20116;-71
2022/01/21 01:06:53;;;;;;;6.65;2.85;;;3.10;67.20;;;;;;5038651;28;20108;-71
2022/01/21 01:09:18;;;;;;;13.02;3.63;;;3.30;67.40;;;;;;5048521;28;20041;-71
2022/01/21 01:20:02;;;;;;;7.68;3.20;;;3.00;67.20;;;;;;5039125;28;20488;-72
2022/01/21 01:22:46;;;;;;;14.40;3.40;;;2.90;67.10;;;;;;5043580;28;20052;-71
2022/01/21 01:27:57;;;;;;;6.05;2.30;;;2.90;67.20;;;;;;5047287;28;20081;-71
2022/01/21 01:30:27;;;;;;;9.98;3.47;;;2.90;67.30;;;;;;5041962;28;20107;-71
2022/01/21 01:32:56;;;;;;;14.07;3.35;;;2.80;67.30;;;;;;5053289;28;20071;-71
2022/01/21 01:35:23;;;;;;;9.02;3.10;;;2.80;67.40;;;;;;5050136;28;20025;-72
2022/01/21 01:40:29;;;;;;;9.15;3.03;;;2.80;67.60;;;;;;5043598;28;20503;-72
2022/01/21 01:50:58;;;;;;;10.55;3.25;;;2.80;67.60;;;;;;5039869;28;20043;-71
2022/01/21 01:53:33;;;;;;;8.85;2.75;;;2.80;67.60;;;;;;5052188;28;20061;-71
2022/01/21 01:56:00;;;;;;;6.47;2.80;;;2.80;67.80;;;;;;5040063;28;20029;-71
2022/01/21 01:58:26;;;;;;;10.02;3.33;;;3.10;68.00;;;;;;5047562;28;20155;-71
2022/01/21 02:00:56;;;;;;;7.88;3.15;;;2.80;67.80;;;;;;5035368;28;20116;-71
2022/01/21 02:03:22;;;;;;;7.93;2.90;;;2.80;67.70;;;;;;5046530;28;20497;-71
2022/01/21 02:05:48;;;;;;;16.95;4.10;;;2.90;67.70;;;;;;5047528;28;20504;-71
2022/01/21 02:08:14;;;;;;;13.45;3.75;;;2.90;67.60;;;;;;5046031;28;20029;-71
2022/01/21 02:10:42;;;;;;;15.63;3.45;;;2.80;67.40;;;;;;5033957;28;20363;-71
2022/01/21 02:13:29;;;;;;;10.10;3.33;;;2.80;67.50;;;;;;5040362;28;20033;-72
2022/01/21 02:16:30;;;;;;;10.05;3.22;;;2.80;67.60;;;;;;5035038;28;20028;-71
2022/01/21 02:21:46;;;;;;;10.20;3.78;;;2.90;67.60;;;;;;5045823;28;20128;-72
2022/01/21 02:24:28;;;;;;;11.63;3.55;;;3.00;67.60;;;;;;5044839;28;20372;-71
2022/01/21 02:26:54;;;;;;;13.00;4.18;;;2.90;67.50;;;;;;5039344;28;20021;-71
2022/01/21 02:29:31;;;;;;;13.57;3.33;;;2.90;67.50;;;;;;5046587;28;20124;-71
2022/01/21 02:31:58;;;;;;;10.48;3.60;;;2.90;67.50;;;;;;5041199;28;20021;-72
2022/01/21 02:34:24;;;;;;;10.55;2.92;;;2.80;67.40;;;;;;5044974;28;20424;-71
2022/01/21 02:36:50;;;;;;;7.43;2.50;;;2.80;67.50;;;;;;5043825;28;20010;-71
2022/01/21 02:39:16;;;;;;;10.45;2.80;;;2.80;67.50;;;;;;5035054;28;20033;-71
2022/01/21 02:41:42;;;;;;;9.43;3.00;;;2.80;67.50;;;;;;5039458;28;20381;-71
2022/01/21 02:44:13;;;;;;;12.50;3.35;;;2.90;67.50;;;;;;5045190;28;20022;-71
2022/01/21 02:46:41;;;;;;;11.18;3.10;;;2.90;67.50;;;;;;5042422;28;20444;-71
2022/01/21 02:49:07;;;;;;;5.72;3.03;;;2.90;67.60;;;;;;5037639;28;20109;-71
2022/01/21 02:51:33;;;;;;;14.05;4.40;;;2.90;67.60;;;;;;5044767;28;20100;-71
2022/01/21 02:54:05;;;;;;;11.40;3.10;;;2.90;67.60;;;;;;5045174;28;20025;-71
2022/01/21 02:56:36;;;;;;;10.00;3.53;;;2.90;67.60;;;;;;5049302;28;20036;-71
2022/01/21 02:59:04;;;;;;;15.07;3.28;;;2.90;67.50;;;;;;5040072;28;20108;-71
2022/01/21 03:01:32;;;;;;;10.23;3.20;;;2.90;67.50;;;;;;5043594;28;20116;-71
2022/01/21 03:03:58;;;;;;;11.13;3.53;;;2.90;67.40;;;;;;5032852;28;20074;-71
2022/01/21 03:06:24;;;;;;;10.88;3.83;;;2.90;67.40;;;;;;5040246;28;20025;-71
2022/01/21 03:08:52;;;;;;;8.27;3.22;;;2.80;67.40;;;;;;5043006;28;20021;-71
2022/01/21 03:11:19;;;;;;;11.07;2.97;;;2.80;67.40;;;;;;5034243;28;20033;-71
2022/01/21 03:13:45;;;;;;;10.30;2.58;;;2.80;67.40;;;;;;5036254;28;20389;-71
2022/01/21 03:16:12;;;;;;;8.23;2.40;;;2.80;67.30;;;;;;5049009;28;20021;-71
2022/01/21 03:18:38;;;;;;;12.35;3.50;;;2.80;67.30;;;;;;5032881;28;20036;-71
2022/01/21 03:21:04;;;;;;;12.88;2.85;;;2.80;67.20;;;;;;5040073;28;20091;-71
2022/01/21 03:23:30;;;;;;;14.27;3.75;;;2.80;67.30;;;;;;5046169;28;20029;-71
2022/01/21 03:25:56;;;;;;;10.32;2.67;;;3.00;67.40;;;;;;5040952;28;20026;-71
2022/01/21 03:28:22;;;;;;;9.45;2.45;;;2.80;67.20;;;;;;5035423;28;20021;-71
2022/01/21 03:30:50;;;;;;;11.18;3.17;;;2.70;67.10;;;;;;5033787;28;20480;-71
2022/01/21 03:33:16;;;;;;;10.20;2.70;;;2.70;67.20;;;;;;5047557;28;20021;-71
2022/01/21 03:35:42;;;;;;;11.25;2.60;;;2.70;67.10;;;;;;5041085;28;20115;-71
2022/01/21 03:38:08;;;;;;;10.25;2.58;;;2.70;67.20;;;;;;5034556;28;20025;-72
2022/01/21 03:40:34;;;;;;;12.27;2.83;;;2.70;67.20;;;;;;5033948;28;20472;-71
2022/01/21 03:42:59;;;;;;;13.13;2.97;;;2.70;67.20;;;;;;5046886;28;20545;-71
2022/01/21 03:45:25;;;;;;;11.02;3.03;;;2.70;67.20;;;;;;5042786;28;20021;-72
2022/01/21 03:47:52;;;;;;;12.35;2.83;;;2.70;67.10;;;;;;5032947;28;20389;-71
2022/01/21 03:50:22;;;;;;;10.73;3.60;;;2.70;67.10;;;;;;5033963;28;20024;-72
2022/01/21 03:52:48;;;;;;;10.25;3.22;;;2.70;67.10;;;;;;5032964;28;20374;-71
2022/01/21 03:55:14;;;;;;;6.47;2.45;;;2.70;67.10;;;;;;5037081;28;20108;-72
2022/01/21 03:57:40;;;;;;;8.10;2.85;;;2.70;67.20;;;;;;5033091;28;20095;-73
2022/01/21 04:00:08;;;;;;;10.00;2.63;;;2.70;67.10;;;;;;5033439;28;20500;-72
2022/01/21 04:02:34;;;;;;;7.82;2.50;;;2.70;67.10;;;;;;5046003;28;20187;-72
2022/01/21 04:05:00;;;;;;;7.93;3.08;;;2.80;67.10;;;;;;5046980;28;20461;-72
2022/01/21 04:07:25;;;;;;;9.98;3.28;;;2.70;66.90;;;;;;5046945;28;20032;-73
2022/01/21 04:09:51;;;;;;;9.40;2.55;;;2.80;67.00;;;;;;5041815;28;20426;-72
2022/01/21 04:12:16;;;;;;;7.65;3.00;;;2.90;66.90;;;;;;5032404;28;20112;-71
2022/01/21 04:14:42;;;;;;;14.13;3.25;;;2.80;66.90;;;;;;5033850;28;20029;-71
2022/01/21 04:17:08;;;;;;;8.25;2.20;;;2.80;66.80;;;;;;5037430;28;20040;-72
2022/01/21 04:19:34;;;;;;;8.43;2.70;;;2.80;66.80;;;;;;5036960;28;20025;-72
2022/01/21 04:22:00;;;;;;;9.40;3.13;;;2.80;66.70;;;;;;5047278;28;20025;-71
2022/01/21 04:24:25;;;;;;;10.85;2.97;;;2.80;66.80;;;;;;5032197;28;20040;-71
2022/01/21 04:26:51;;;;;;;20.00;3.15;;;2.80;66.70;;;;;;5043059;28;20104;-71
2022/01/21 04:29:17;;;;;;;12.65;3.50;;;2.80;66.60;;;;;;5031749;28;20042;-71
2022/01/21 04:31:43;;;;;;;14.57;3.55;;;2.80;66.70;;;;;;5030801;28;20468;-71
2022/01/21 04:34:09;;;;;;;10.52;3.67;;;2.80;66.80;;;;;;5035607;28;20021;-72
2022/01/21 04:36:36;;;;;;;19.27;4.55;;;2.80;66.90;;;;;;5039477;28;20061;-73
2022/01/21 04:39:04;;;;;;;6.65;2.65;;;2.80;66.90;;;;;;5044883;28;20116;-73
2022/01/21 04:47:18;;;;;;;6.55;2.28;;;2.80;66.80;;;;;;5046898;28;20121;-73
2022/01/21 04:49:45;;;;;;;13.38;3.15;;;2.80;66.80;;;;;;5042127;28;20049;-73
2022/01/21 04:52:11;;;;;;;9.70;3.38;;;2.90;66.90;;;;;;5035338;28;20485;-71
2022/01/21 04:54:36;;;;;;;15.43;3.50;;;2.80;67.00;;;;;;5047849;28;20025;-72
2022/01/21 04:57:04;;;;;;;6.07;2.85;;;2.90;67.00;;;;;;5050966;28;20025;-72
2022/01/21 04:59:30;;;;;;;13.88;2.92;;;2.90;66.90;;;;;;5037294;28;20014;-72
2022/01/21 05:01:56;;;;;;;10.95;3.17;;;2.90;66.90;;;;;;5037847;28;20458;-71
2022/01/21 05:04:22;;;;;;;12.25;4.85;;;3.00;67.10;;;;;;5048840;28;20045;-71
2022/01/21 05:06:50;;;;;;;13.05;4.28;;;2.80;67.00;;;;;;5048895;28;20045;-71
2022/01/21 05:09:17;;;;;;;9.00;3.47;;;2.80;67.00;;;;;;5039442;28;20504;-71
2022/01/21 05:11:45;;;;;;;7.78;3.38;;;2.80;67.20;;;;;;5051273;28;20957;-71
2022/01/21 05:14:19;;;;;;;9.48;3.92;;;2.80;67.40;;;;;;5048560;28;20025;-72
2022/01/21 05:16:50;;;;;;;11.80;3.42;;;2.80;67.40;;;;;;5043699;28;20508;-71
2022/01/21 05:19:18;;;;;;;11.43;3.28;;;2.80;67.50;;;;;;5043870;28;20474;-71
2022/01/21 05:21:48;;;;;;;11.13;3.78;;;2.80;67.60;;;;;;5044610;28;20473;-72
2022/01/21 05:24:16;;;;;;;9.48;2.92;;;2.80;67.60;;;;;;5043041;28;20029;-72
2022/01/21 05:26:52;;;;;;;8.13;3.60;;;2.80;67.60;;;;;;5048265;28;20021;-72
2022/01/21 05:29:19;;;;;;;6.00;2.60;;;2.80;67.60;;;;;;5035606;28;20050;-71
2022/01/21 05:31:45;;;;;;;6.55;2.47;;;2.80;67.40;;;;;;5035069;28;20063;-71
2022/01/21 05:34:10;;;;;;;11.82;2.50;;;2.80;67.20;;;;;;5047213;28;20029;-72
2022/01/21 05:36:40;;;;;;;9.77;2.92;;;2.80;67.30;;;;;;5045884;28;20040;-72
2022/01/21 05:39:09;;;;;;;11.70;3.17;;;2.80;67.20;;;;;;5038664;28;20022;-72
2022/01/21 05:41:35;;;;;;;7.22;2.75;;;2.80;67.30;;;;;;5037624;28;20034;-73
2022/01/21 05:44:09;;;;;;;11.18;2.80;;;2.80;67.40;;;;;;5045639;28;20092;-72
2022/01/21 05:49:14;;;;;;;11.30;2.75;;;2.90;67.60;;;;;;5049122;28;20031;-71
2022/01/21 05:51:41;;;;;;;13.13;2.80;;;2.90;67.50;;;;;;5035220;28;20033;-72
2022/01/21 05:54:12;;;;;;;7.25;2.85;;;2.90;67.40;;;;;;5034509;28;20045;-72
2022/01/21 05:56:39;;;;;;;12.27;3.15;;;2.90;67.40;;;;;;5048327;28;20063;-72
2022/01/21 05:59:08;;;;;;;10.63;2.95;;;2.90;67.40;;;;;;5042855;28;20063;-72
2022/01/21 06:01:34;;;;;;;9.23;3.00;;;2.90;67.20;;;;;;5047151;28;20063;-72
2022/01/21 06:04:04;;;;;;;9.30;3.20;;;2.90;67.20;;;;;;5049014;28;20021;-72
2022/01/21 06:06:30;;;;;;;9.13;2.67;;;2.90;67.20;;;;;;5045809;28;20040;-72
2022/01/21 06:08:56;;;;;;;8.75;3.28;;;2.90;67.30;;;;;;5051764;28;20045;-72
2022/01/21 06:11:22;;;;;;;9.35;2.58;;;2.90;67.20;;;;;;5046332;28;20033;-71
2022/01/21 06:13:50;;;;;;;8.57;3.03;;;2.90;67.20;;;;;;5036192;28;20473;-72
2022/01/21 06:16:17;;;;;;;11.25;3.38;;;2.80;67.10;;;;;;5044388;28;20450;-72
2022/01/21 06:18:43;;;;;;;9.18;3.00;;;2.80;66.90;;;;;;5041869;28;20024;-73
2022/01/21 06:21:09;;;;;;;16.05;3.60;;;2.80;66.80;;;;;;5047740;28;20041;-71
2022/01/21 06:23:35;;;;;;;6.40;2.58;;;2.80;66.60;;;;;;5046171;28;20021;-72
2022/01/21 06:26:01;;;;;;;6.07;2.75;;;2.70;66.80;;;;;;5034776;28;20033;-72
2022/01/21 06:28:27;;;;;;;11.30;3.38;;;2.70;66.80;;;;;;5045093;28;20021;-72
2022/01/21 06:30:52;;;;;;;9.15;3.33;;;2.70;66.90;;;;;;5037382;28;20422;-71
2022/01/21 06:33:20;;;;;;;9.55;3.20;;;2.70;66.90;;;;;;5035653;28;20036;-72
2022/01/21 06:35:50;;;;;;;9.40;3.38;;;2.60;66.80;;;;;;5038817;28;20037;-71
2022/01/21 06:38:16;;;;;;;12.43;3.25;;;2.60;66.80;;;;;;5039761;28;20043;-72
2022/01/21 06:40:42;;;;;;;9.40;3.03;;;2.60;66.80;;;;;;5037397;28;20562;-72
2022/01/21 06:43:08;;;;;;;14.45;3.50;;;2.50;66.70;;;;;;5039648;28;20079;-72
2022/01/21 06:45:34;;;;;;;17.33;5.55;;;2.60;66.80;;;;;;5039997;28;20105;-72
2022/01/21 06:48:02;;;;;;;15.65;5.05;;;2.50;66.80;;;;;;5036649;28;20037;-72
2022/01/21 06:50:28;;;;;;;10.45;4.88;;;2.60;66.90;;;;;;5032477;28;20033;-72
2022/01/21 06:52:54;;;;;;;10.63;4.47;;;2.50;66.90;;;;;;5035045;28;20025;-72
2022/01/21 06:55:20;;;;;;;11.65;4.05;;;2.50;66.90;;;;;;5033283;28;20060;-72
2022/01/21 06:57:45;;;;;;;15.30;3.70;;;2.50;67.00;;;;;;5043942;28;20509;-72
2022/01/21 07:00:16;;;;;;;14.35;4.47;;;2.60;67.00;;;;;;5042049;28;20060;-72
2022/01/21 07:02:42;;;;;;;14.63;3.35;;;2.50;67.00;;;;;;5041495;28;20136;-72
2022/01/21 07:05:08;;;;;;;8.45;3.25;;;2.40;66.90;;;;;;5046219;28;20049;-72
2022/01/21 07:07:33;;;;;;;7.47;3.28;;;2.40;67.00;;;;;;5033075;28;20029;-72
2022/01/21 07:10:01;;;;;;;11.27;3.25;;;2.40;67.00;;;;;;5047712;28;20627;-70
2022/01/21 07:12:27;;;;;;;7.20;3.33;;;2.50;67.10;;;;;;5050310;28;20111;-69
2022/01/21 07:14:53;;;;;;;14.80;3.22;;;2.40;67.00;;;;;;5034871;28;20116;-70
2022/01/21 07:17:19;;;;;;;12.77;3.50;;;2.40;67.10;;;;;;5042861;28;20100;-70
2022/01/21 07:19:44;;;;;;;10.80;3.38;;;2.40;67.20;;;;;;5052637;28;20527;-70
2022/01/21 07:22:10;;;;;;;11.45;3.40;;;2.40;67.30;;;;;;5044108;28;20087;-70
2022/01/21 07:24:36;;;;;;;7.20;3.20;;;2.40;67.40;;;;;;5043129;28;20048;-70
2022/01/21 07:27:02;;;;;;;12.45;3.88;;;2.40;67.50;;;;;;5041516;28;20505;-70
2022/01/21 07:29:28;;;;;;;11.75;3.85;;;2.40;67.60;;;;;;5032800;28;20057;-70
2022/01/21 07:31:54;;;;;;;12.35;4.35;;;2.40;67.60;;;;;;5033248;28;20088;-69
2022/01/21 07:34:24;;;;;;;14.43;3.58;;;2.60;67.70;;;;;;5043332;28;20021;-70
2022/01/21 07:36:52;;;;;;;15.18;3.35;;;2.50;67.60;;;;;;5050971;28;20033;-70
2022/01/21 07:39:18;;;;;;;12.90;5.03;;;2.50;67.60;;;;;;5039421;28;20025;-70
2022/01/21 07:41:44;;;;;;;14.68;4.80;;;2.50;67.50;;;;;;5039715;28;20041;-69
2022/01/21 07:44:10;;;;;;;12.77;4.45;;;2.50;67.50;;;;;;5050749;28;20032;-70
2022/01/21 07:46:35;;;;;;;18.25;4.22;;;2.60;67.60;;;;;;5038989;28;20079;-70
2022/01/21 07:49:01;;;;;;;13.55;4.20;;;2.70;67.70;;;;;;5042380;28;20023;-69
2022/01/21 07:51:27;;;;;;;9.07;3.78;;;2.60;67.80;;;;;;5049246;28;20056;-70
2022/01/21 07:53:52;;;;;;;12.55;3.65;;;2.60;67.70;;;;;;5051740;28;20104;-70
2022/01/21 07:56:18;;;;;;;12.13;3.70;;;2.70;67.70;;;;;;5037782;28;20433;-70
2022/01/21 07:58:44;;;;;;;11.02;3.75;;;2.70;67.70;;;;;;5044105;28;20010;-70
2022/01/21 08:01:10;;;;;;;11.40;4.00;;;2.70;67.50;;;;;;5039214;28;20045;-70
2022/01/21 08:03:36;;;;;;;10.00;3.42;;;2.80;67.60;;;;;;5043487;28;20055;-70
2022/01/21 08:06:01;;;;;;;14.00;3.78;;;2.80;67.60;;;;;;5046373;28;20462;-70
2022/01/21 08:08:27;;;;;;;12.57;3.40;;;2.80;67.40;;;;;;5045300;28;20056;-71
2022/01/21 08:10:54;;;;;;;14.23;3.20;;;2.80;67.40;;;;;;5043831;28;20025;-70
2022/01/21 08:13:20;;;;;;;12.73;3.30;;;2.80;67.20;;;;;;5043778;28;20124;-70
2022/01/21 08:15:45;;;;;;;14.40;3.55;;;2.80;67.30;;;;;;5049935;28;20109;-70
2022/01/21 08:18:12;;;;;;;9.77;2.92;;;2.80;67.40;;;;;;5042394;28;20053;-70
2022/01/21 08:20:38;;;;;;;15.25;3.33;;;2.80;67.40;;;;;;5048903;28;20026;-70
2022/01/21 08:23:04;;;;;;;12.52;3.85;;;2.80;67.20;;;;;;5037542;28;20048;-70
2022/01/21 08:25:29;;;;;;;12.32;3.80;;;2.80;67.20;;;;;;5043620;28;20082;-70
2022/01/21 08:27:55;;;;;;;14.75;3.95;;;2.80;67.10;;;;;;5043969;28;20037;-70
2022/01/21 08:30:21;;;;;;;10.52;3.42;;;2.80;67.10;;;;;;5039743;28;20041;-70
2022/01/21 08:32:47;;;;;;;11.30;4.03;;;2.80;67.10;;;;;;5034905;28;20025;-70
2022/01/21 08:35:12;;;;;;;11.88;3.47;;;2.80;67.00;;;;;;5047690;28;20021;-70
2022/01/21 08:37:38;;;;;;;13.27;3.38;;;2.80;67.10;;;;;;5042436;28;20032;-71
2022/01/21 08:40:06;;;;;;;14.05;3.78;;;3.10;67.40;;;;;;5035969;28;20051;-71
2022/01/21 08:42:31;;;;;;;12.10;3.25;;;2.90;67.20;;;;;;5050414;28;20493;-70
2022/01/21 08:44:57;;;;;;;12.07;3.00;;;3.20;67.40;;;;;;5053154;28;20068;-72
2022/01/21 08:47:23;;;;;;;11.45;3.33;;;3.20;67.50;;;;;;5037336;28;20092;-71
2022/01/21 08:49:50;;;;;;;15.05;3.63;;;3.10;67.40;;;;;;5037081;28;20084;-71
2022/01/21 08:52:21;;;;;;;9.57;3.20;;;3.20;67.30;;;;;;5049618;28;20428;-70
2022/01/21 08:54:47;;;;;;;10.63;3.03;;;3.30;67.20;;;;;;5036399;28;20083;-70
2022/01/21 08:57:15;;;;;;;12.23;3.60;;;3.40;67.10;;;;;;5054231;28;20033;-71
2022/01/21 08:59:40;;;;;;;12.48;3.00;;;3.50;66.90;;;;;;5037270;28;20469;-71
2022/01/21 09:02:06;;;;;;;11.48;2.88;;;3.50;66.70;;;;;;5041944;28;20079;-71
2022/01/21 09:04:32;;;;;;;8.30;3.33;;;3.60;66.60;;;;;;5040676;28;20026;-71
2022/01/21 09:06:58;;;;;;;10.32;3.08;;;3.70;66.60;;;;;;5041689;28;20028;-71
2022/01/21 09:09:25;;;;;;;13.00;3.25;;;3.80;66.40;;;;;;5038988;28;20481;-71
2022/01/21 09:11:53;;;;;;;11.65;2.75;;;4.00;65.60;;;;;;5041386;28;20061;-70
2022/01/21 09:14:19;;;;;;;14.63;3.05;;;3.90;66.00;;;;;;5047156;28;20021;-71
2022/01/21 09:16:44;;;;;;;9.23;2.92;;;4.00;66.10;;;;;;5034542;28;20034;-71
2022/01/21 09:19:11;;;;;;;11.48;3.20;;;4.30;66.20;;;;;;5039628;28;20020;-71
2022/01/21 09:21:41;;;;;;;6.38;3.08;;;4.10;65.70;;;;;;5055178;28;20196;-71
2022/01/21 09:24:07;;;;;;;7.72;3.17;;;4.20;65.70;;;;;;5049788;28;20017;-71
2022/01/21 09:26:33;;;;;;;12.38;3.50;;;4.30;65.80;;;;;;5054553;28;20097;-71
2022/01/21 09:29:02;;;;;;;11.88;3.38;;;4.40;65.70;;;;;;5049153;28;20525;-70
2022/01/21 09:31:29;;;;;;;14.50;3.63;;;4.70;64.70;;;;;;5051891;28;20025;-71
2022/01/21 09:33:54;;;;;;;10.57;3.00;;;4.60;64.00;;;;;;5053760;28;20044;-71
2022/01/21 09:36:21;;;;;;;11.93;2.97;;;4.70;64.60;;;;;;5036796;28;20394;-71
2022/01/21 09:38:47;;;;;;;15.20;3.30;;;4.80;64.90;;;;;;5041781;28;20032;-70
2022/01/21 09:41:15;;;;;;;18.55;3.63;;;4.90;64.60;;;;;;5044847;28;20145;-70
2022/01/21 09:43:47;;;;;;;13.25;3.33;;;5.00;64.90;;;;;;5050154;28;20029;-70
2022/01/21 09:46:14;;;;;;;11.85;3.90;;;5.10;64.70;;;;;;5052887;28;20059;-70
2022/01/21 09:49:04;;;;;;;11.80;3.28;;;5.20;64.40;;;;;;5045710;28;20033;-70
2022/01/21 09:51:31;;;;;;;15.73;4.18;;;5.20;64.20;;;;;;5034486;28;20108;-70
2022/01/21 09:54:00;;;;;;;10.70;3.40;;;5.30;64.00;;;;;;5042070;28;20083;-70
2022/01/21 09:56:27;;;;;;;11.60;3.60;;;5.60;63.90;;;;;;5049981;28;20018;-70
2022/01/21 09:58:53;;;;;;;10.85;3.10;;;5.50;63.60;;;;;;5036589;28;20107;-70
2022/01/21 10:01:19;;;;;;;15.40;3.75;;;5.50;63.40;;;;;;5035691;28;20131;-70
2022/01/21 10:03:47;;;;;;;16.30;2.70;;;5.60;63.50;;;;;;5037010;28;20124;-70
2022/01/21 10:06:14;;;;;;;10.88;3.60;;;5.70;63.30;;;;;;5036473;28;20041;-70
2022/01/21 10:08:41;;;;;;;11.02;3.28;;;5.70;62.20;;;;;;5037731;28;20517;-70
2022/01/21 10:11:08;;;;;;;9.80;3.30;;;5.70;62.40;;;;;;5036565;28;20040;-70
2022/01/21 10:13:35;;;;;;;12.73;3.97;;;5.80;62.50;;;;;;5048520;28;20377;-70
2022/01/21 10:16:04;;;;;;;13.25;3.80;;;5.80;62.00;;;;;;5051187;28;20127;-70
2022/01/21 10:18:29;;;;;;;11.35;3.50;;;5.80;61.70;;;;;;5048909;28;20087;-70
2022/01/21 10:20:58;;;;;;;12.23;3.33;;;5.80;61.80;;;;;;5053192;28;20032;-70
2022/01/21 10:23:24;;;;;;;13.55;3.15;;;5.80;62.20;;;;;;5050517;28;20078;-70
2022/01/21 10:26:09;;;;;;;8.13;2.90;;;5.80;62.20;;;;;;5038208;28;20033;-70
2022/01/21 10:28:37;;;;;;;8.35;3.30;;;5.80;61.80;;;;;;5041546;28;20018;-70
2022/01/21 10:31:16;;;;;;;15.15;3.90;;;5.90;61.80;;;;;;5033849;28;20517;-70
2022/01/21 10:33:44;;;;;;;8.68;3.20;;;5.90;61.70;;;;;;5045139;28;20032;-70
2022/01/21 10:36:15;;;;;;;11.57;3.38;;;5.90;61.40;;;;;;5050120;28;20056;-70
2022/01/21 10:38:54;;;;;;;12.82;3.30;;;5.90;60.90;;;;;;5049362;28;20032;-70
2022/01/21 10:41:21;;;;;;;13.75;3.10;;;5.90;59.90;;;;;;5047345;28;20036;-70
2022/01/21 10:44:04;;;;;;;10.90;3.30;;;5.90;60.80;;;;;;5048120;28;20021;-71
2022/01/21 10:46:29;;;;;;;15.05;3.83;;;6.00;59.70;;;;;;5036084;28;20029;-70
2022/01/21 10:49:03;;;;;;;9.55;3.03;;;6.00;61.20;;;;;;5041915;28;20037;-71
2022/01/21 10:51:33;;;;;;;12.07;3.65;;;6.00;61.00;;;;;;5042525;28;20030;-71
2022/01/21 10:54:20;;;;;;;14.68;3.55;;;6.10;61.10;;;;;;5034754;28;20479;-71
2022/01/21 10:57:09;;;;;;;11.02;2.97;;;6.10;61.10;;;;;;5040732;28;20569;-71
2022/01/21 10:59:58;;;;;;;11.07;3.25;;;6.30;61.30;;;;;;5049178;28;20390;-71
2022/01/21 11:02:54;;;;;;;10.00;3.83;;;6.40;61.00;;;;;;5035507;28;20116;-71
2022/01/21 11:05:27;;;;;;;8.20;3.20;;;6.40;59.80;;;;;;5046540;28;20116;-74
2022/01/21 11:08:05;;;;;;;14.13;3.38;;;6.40;60.40;;;;;;5034727;28;20033;-73
2022/01/21 11:10:37;;;;;;;12.25;2.97;;;6.40;60.20;;;;;;5050869;28;20029;-73
2022/01/21 11:13:23;;;;;;;13.02;3.33;;;6.40;60.10;;;;;;5045353;28;20063;-72
2022/01/21 11:15:54;;;;;;;13.55;2.92;;;6.40;59.60;;;;;;5043452;28;20496;-73
2022/01/21 11:18:21;;;;;;;10.77;2.90;;;6.40;60.30;;;;;;5052741;28;20481;-73
2022/01/21 11:20:57;;;;;;;10.20;3.55;;;6.40;59.90;;;;;;5042522;28;20025;-74
2022/01/21 11:23:27;;;;;;;10.63;3.15;;;6.40;59.80;;;;;;5033518;28;20036;-72
2022/01/21 11:25:59;;;;;;;11.20;3.35;;;6.30;59.20;;;;;;5048033;28;20504;-72
2022/01/21 11:28:42;;;;;;;7.72;2.60;;;6.30;59.70;;;;;;5050894;28;20029;-72
2022/01/21 11:31:09;;;;;;;11.77;3.17;;;6.30;59.80;;;;;;5041174;28;20057;-73
2022/01/21 11:33:35;;;;;;;13.77;3.40;;;6.20;59.80;;;;;;5043688;28;20029;-73
2022/01/21 11:36:02;;;;;;;13.48;3.30;;;6.20;59.80;;;;;;5052392;28;20033;-73
2022/01/21 11:38:36;;;;;;;11.07;3.13;;;6.10;59.30;;;;;;5052403;28;20037;-74
2022/01/21 11:41:05;;;;;;;12.07;3.53;;;6.00;59.10;;;;;;5040693;28;20041;-72
2022/01/21 11:43:33;;;;;;;11.40;3.60;;;5.90;59.10;;;;;;5032929;28;20033;-71
2022/01/21 11:51:26;;;;;;;9.27;3.10;;;5.60;59.10;;;;;;5050980;28;20388;-71
2022/01/21 11:54:16;;;;;;;11.95;4.00;;;5.60;59.60;;;;;;5037703;28;20081;-71
2022/01/21 11:56:47;;;;;;;11.40;3.55;;;5.50;59.80;;;;;;5050530;28;20517;-72
2022/01/21 11:59:34;;;;;;;17.05;5.00;;;5.70;60.20;;;;;;5051475;28;20032;-72
2022/01/21 12:02:15;;;;;;;15.55;4.47;;;5.40;59.60;;;;;;5050697;28;20043;-72
2022/01/21 12:05:00;;;;;;;12.65;3.75;;;5.20;59.60;;;;;;5045591;28;20504;-72
2022/01/21 12:07:44;;;;;;;10.18;3.83;;;5.20;60.10;;;;;;5032648;28;20025;-72
2022/01/21 12:10:14;;;;;;;15.77;3.97;;;5.00;60.00;;;;;;5046330;28;20116;-71
2022/01/21 12:12:51;;;;;;;12.98;3.65;;;5.00;60.60;;;;;;5051761;28;20037;-72
2022/01/21 12:15:36;;;;;;;18.02;4.05;;;5.00;60.60;;;;;;5040841;28;20044;-73
2022/01/21 12:18:36;;;;;;;7.22;3.15;;;4.90;60.70;;;;;;5038697;28;20060;-72
2022/01/21 12:21:22;;;;;;;19.90;4.65;;;4.80;60.90;;;;;;5038214;28;20072;-72
2022/01/21 12:23:48;;;;;;;12.02;3.47;;;4.80;61.10;;;;;;5051092;28;20037;-72
2022/01/21 12:26:15;;;;;;;13.85;3.95;;;4.80;61.40;;;;;;5046965;28;20032;-72
2022/01/21 12:28:43;;;;;;;14.55;4.15;;;4.70;61.80;;;;;;5042457;28;20043;-72
2022/01/21 12:31:12;;;;;;;13.65;4.18;;;4.70;62.40;;;;;;5047010;28;20050;-71
2022/01/21 12:34:34;;;;;;;9.85;3.60;;;4.70;62.90;;;;;;5042679;28;20032;-72
2022/01/21 12:36:52;;;;;;;15.40;3.50;;;4.80;63.40;;;;;;5033764;28;20029;-72
2022/01/21 12:39:41;;;;;;;14.38;4.22;;;4.90;64.00;;;;;;5032010;28;20258;-72
2022/01/21 12:42:26;;;;;;;12.40;3.78;;;5.00;63.80;;;;;;5032082;28;20829;-72
2022/01/21 12:45:15;;;;;;;12.27;3.55;;;5.00;63.30;;;;;;5045138;28;20025;-72
2022/01/21 12:47:46;;;;;;;13.63;4.28;;;5.10;63.30;;;;;;5029819;28;20045;-72
2022/01/21 12:50:23;;;;;;;16.38;4.22;;;5.10;63.20;;;;;;5036670;28;20021;-72
2022/01/21 12:52:55;;;;;;;11.80;3.92;;;5.20;63.10;;;;;;5051436;28;20025;-72
2022/01/21 12:55:58;;;;;;;14.13;4.07;;;5.30;62.40;;;;;;5051459;28;20083;-72
2022/01/21 12:58:30;;;;;;;8.48;3.60;;;5.30;63.20;;;;;;5039000;28;20036;-72
2022/01/21 13:01:02;;;;;;;9.93;3.65;;;5.30;62.50;;;;;;5037920;28;20036;-72
2022/01/21 13:03:46;;;;;;;12.05;3.47;;;5.30;62.20;;;;;;5051431;28;20036;-72
2022/01/21 13:06:20;;;;;;;14.60;3.60;;;5.30;62.10;;;;;;5038126;28;20025;-72
2022/01/21 13:09:01;;;;;;;;;;;5.20;62.10;;;;;;5048043;28;20136;-72
2022/01/21 13:11:29;;;;;;;12.70;4.20;;;5.30;62.10;;;;;;5055371;28;19912;-72
2022/01/21 13:17:13;;;;;;;10.10;3.53;;;5.20;61.60;;;;;;5055007;28;20516;-72
2022/01/21 13:19:45;;;;;;;14.23;3.20;;;5.10;61.50;;;;;;5053913;28;20032;-72
2022/01/21 13:22:19;;;;;;;13.95;4.68;;;5.10;62.00;;;;;;5039874;28;20143;-72
2022/01/21 13:25:26;;;;;;;10.20;3.97;;;5.10;61.90;;;;;;5054769;28;20043;-72
2022/01/21 13:27:52;;;;;;;12.48;4.10;;;5.00;61.90;;;;;;5042300;28;20042;-72
2022/01/21 13:30:22;;;;;;;17.55;4.63;;;5.00;62.10;;;;;;5050377;28;20057;-72
2022/01/21 13:32:58;;;;;;;12.88;3.95;;;4.90;62.00;;;;;;5054032;28;20029;-72
2022/01/21 13:35:25;;;;;;;11.40;4.13;;;4.90;62.10;;;;;;5053475;28;20477;-72
2022/01/21 13:38:08;;;;;;;12.25;4.40;;;4.90;62.00;;;;;;5054473;28;20028;-72
2022/01/21 13:40:46;;;;;;;10.07;3.80;;;4.80;62.10;;;;;;5037911;28;20025;-72
2022/01/21 13:43:21;;;;;;;12.32;4.32;;;5.00;62.50;;;;;;5037249;28;20548;-72
2022/01/21 13:45:54;;;;;;;8.32;3.80;;;4.80;62.60;;;;;;5053193;28;20032;-72
2022/01/21 13:48:20;;;;;;;11.75;4.20;;;4.80;62.60;;;;;;5054136;28;20056;-72
2022/01/21 13:50:47;;;;;;;9.10;3.40;;;4.80;62.50;;;;;;5052532;28;20060;-72
2022/01/21 13:53:14;;;;;;;11.07;4.15;;;4.80;62.80;;;;;;5053964;28;20080;-72
2022/01/21 13:55:44;;;;;;;10.50;3.55;;;4.90;62.30;;;;;;5039422;28;20041;-72